sensor_id;sensor_type;location;lat;lon;timestamp;P1;durP1;ratioP1;P2;durP2;ratioP2
12958;SDS011;6544;51.666;6.634;2023-05-10T00:01:07;11.05;;;9.65;;
12958;SDS011;6544;51.666;6.634;2023-05-10T00:03:35;11.18;;;9.20;;
12958;SDS011;6544;51.666;6.634;2023-05-10T00:06:02;10.93;;;8.80;;
12958;SDS011;6544;51.666;6.634;2023-05-10T00:08:29;11.45;;;9.30;;
12958;SDS011;6544;51.666;6.634;2023-05-10T00:10:56;12.18;;;9.77;;
12958;SDS011;6544;51.666;6.634;2023-05-10T00:13:23;12.75;;;10.02;;
12958;SDS011;6544;51.666;6.634;2023-05-10T00:15:50;14.85;;;11.05;;
12958;SDS011;6544;51.666;6.634;2023-05-10T00:18:17;17.65;;;12.93;;
12958;SDS011;6544;51.666;6.634;2023-05-10T00:20:45;17.00;;;12.93;;
12958;SDS011;6544;51.666;6.634;2023-05-10T00:23:13;18.23;;;13.43;;
12958;SDS011;6544;51.666;6.634;2023-05-10T00:25:40;19.75;;;13.48;;
12958;SDS011;6544;51.666;6.634;2023-05-10T00:28:07;19.27;;;14.48;;
12958;SDS011;6544;51.666;6.634;2023-05-10T00:30:34;17.30;;;12.68;;
12958;SDS011;6544;51.666;6.634;2023-05-10T00:33:01;20.13;;;12.90;;
12958;SDS011;6544;51.666;6.634;2023-05-10T00:35:28;24.15;;;12.25;;
12958;SDS011;6544;51.666;6.634;2023-05-10T00:37:56;17.50;;;12.90;;
12958;SDS011;6544;51.666;6.634;2023-05-10T00:40:23;17.00;;;12.38;;
12958;SDS011;6544;51.666;6.634;2023-05-10T00:42:50;20.83;;;14.50;;
12958;SDS011;6544;51.666;6.634;2023-05-10T00:45:17;18.90;;;14.18;;
12958;SDS011;6544;51.666;6.634;2023-05-10T00:47:44;19.20;;;13.95;;
12958;SDS011;6544;51.666;6.634;2023-05-10T00:50:11;19.30;;;14.25;;
12958;SDS011;6544;51.666;6.634;2023-05-10T00:52:38;16.25;;;12.68;;
12958;SDS011;6544;51.666;6.634;2023-05-10T00:55:08;21.30;;;15.02;;
12958;SDS011;6544;51.666;6.634;2023-05-10T00:57:37;21.45;;;15.90;;
12958;SDS011;6544;51.666;6.634;2023-05-10T01:00:05;21.88;;;15.57;;
12958;SDS011;6544;51.666;6.634;2023-05-10T01:02:33;21.23;;;15.68;;
12958;SDS011;6544;51.666;6.634;2023-05-10T01:05:00;19.75;;;14.77;;
12958;SDS011;6544;51.666;6.634;2023-05-10T01:07:30;20.35;;;15.02;;
12958;SDS011;6544;51.666;6.634;2023-05-10T01:13:30;17.25;;;13.50;;
12958;SDS011;6544;51.666;6.634;2023-05-10T01:15:59;17.20;;;13.93;;
12958;SDS011;6544;51.666;6.634;2023-05-10T01:18:27;17.65;;;13.32;;
12958;SDS011;6544;51.666;6.634;2023-05-10T01:21:01;19.73;;;14.40;;
12958;SDS011;6544;51.666;6.634;2023-05-10T01:23:46;18.73;;;14.32;;
12958;SDS011;6544;51.666;6.634;2023-05-10T01:26:49;17.73;;;13.80;;
12958;SDS011;6544;51.666;6.634;2023-05-10T01:29:53;18.58;;;13.70;;
12958;SDS011;6544;51.666;6.634;2023-05-10T01:32:36;19.33;;;14.05;;
12958;SDS011;6544;51.666;6.634;2023-05-10T01:35:08;18.30;;;13.98;;
12958;SDS011;6544;51.666;6.634;2023-05-10T01:37:42;15.55;;;12.60;;
12958;SDS011;6544;51.666;6.634;2023-05-10T01:40:17;16.77;;;13.32;;
12958;SDS011;6544;51.666;6.634;2023-05-10T01:42:50;17.42;;;13.82;;
12958;SDS011;6544;51.666;6.634;2023-05-10T01:45:23;19.20;;;14.05;;
12958;SDS011;6544;51.666;6.634;2023-05-10T01:48:00;16.13;;;12.05;;
12958;SDS011;6544;51.666;6.634;2023-05-10T01:50:32;19.15;;;13.25;;
12958;SDS011;6544;51.666;6.634;2023-05-10T01:53:00;17.48;;;12.82;;
12958;SDS011;6544;51.666;6.634;2023-05-10T01:55:32;17.90;;;13.13;;
12958;SDS011;6544;51.666;6.634;2023-05-10T01:58:02;19.90;;;14.98;;
12958;SDS011;6544;51.666;6.634;2023-05-10T02:00:35;22.45;;;15.77;;
12958;SDS011;6544;51.666;6.634;2023-05-10T02:03:05;24.38;;;16.02;;
12958;SDS011;6544;51.666;6.634;2023-05-10T02:05:34;20.27;;;15.43;;
12958;SDS011;6544;51.666;6.634;2023-05-10T02:08:03;20.75;;;15.40;;
12958;SDS011;6544;51.666;6.634;2023-05-10T02:10:33;19.90;;;15.00;;
12958;SDS011;6544;51.666;6.634;2023-05-10T02:13:05;19.35;;;14.95;;
12958;SDS011;6544;51.666;6.634;2023-05-10T02:15:37;21.25;;;15.73;;
12958;SDS011;6544;51.666;6.634;2023-05-10T02:18:07;22.50;;;17.45;;
12958;SDS011;6544;51.666;6.634;2023-05-10T02:20:37;20.55;;;16.92;;
12958;SDS011;6544;51.666;6.634;2023-05-10T02:23:04;21.88;;;17.13;;
12958;SDS011;6544;51.666;6.634;2023-05-10T02:25:32;23.60;;;17.38;;
12958;SDS011;6544;51.666;6.634;2023-05-10T02:28:01;23.90;;;18.20;;
12958;SDS011;6544;51.666;6.634;2023-05-10T02:30:29;25.52;;;18.83;;
12958;SDS011;6544;51.666;6.634;2023-05-10T02:32:58;23.48;;;18.60;;
12958;SDS011;6544;51.666;6.634;2023-05-10T02:35:28;24.67;;;18.38;;
12958;SDS011;6544;51.666;6.634;2023-05-10T02:37:56;25.23;;;18.85;;
12958;SDS011;6544;51.666;6.634;2023-05-10T02:40:24;25.42;;;18.45;;
12958;SDS011;6544;51.666;6.634;2023-05-10T02:42:54;21.63;;;17.92;;
12958;SDS011;6544;51.666;6.634;2023-05-10T02:45:23;23.00;;;18.38;;
12958;SDS011;6544;51.666;6.634;2023-05-10T02:47:56;24.80;;;18.38;;
12958;SDS011;6544;51.666;6.634;2023-05-10T02:50:24;24.67;;;18.33;;
12958;SDS011;6544;51.666;6.634;2023-05-10T02:53:01;20.50;;;16.98;;
12958;SDS011;6544;51.666;6.634;2023-05-10T02:55:35;22.75;;;18.70;;
12958;SDS011;6544;51.666;6.634;2023-05-10T02:58:04;23.75;;;17.13;;
12958;SDS011;6544;51.666;6.634;2023-05-10T03:00:31;21.63;;;17.30;;
12958;SDS011;6544;51.666;6.634;2023-05-10T03:02:58;25.08;;;19.13;;
12958;SDS011;6544;51.666;6.634;2023-05-10T03:05:25;22.55;;;18.20;;
12958;SDS011;6544;51.666;6.634;2023-05-10T03:07:53;24.73;;;19.20;;
12958;SDS011;6544;51.666;6.634;2023-05-10T03:10:21;23.50;;;18.35;;
12958;SDS011;6544;51.666;6.634;2023-05-10T03:12:56;24.08;;;18.48;;
12958;SDS011;6544;51.666;6.634;2023-05-10T03:15:34;27.88;;;20.65;;
12958;SDS011;6544;51.666;6.634;2023-05-10T03:18:07;32.28;;;19.60;;
12958;SDS011;6544;51.666;6.634;2023-05-10T03:20:46;26.75;;;19.67;;
12958;SDS011;6544;51.666;6.634;2023-05-10T03:23:19;30.42;;;20.58;;
12958;SDS011;6544;51.666;6.634;2023-05-10T03:25:49;27.92;;;21.25;;
12958;SDS011;6544;51.666;6.634;2023-05-10T03:28:17;24.58;;;19.05;;
12958;SDS011;6544;51.666;6.634;2023-05-10T03:30:46;28.48;;;20.65;;
12958;SDS011;6544;51.666;6.634;2023-05-10T03:33:13;29.15;;;20.73;;
12958;SDS011;6544;51.666;6.634;2023-05-10T03:35:40;31.65;;;21.38;;
12958;SDS011;6544;51.666;6.634;2023-05-10T03:38:09;30.13;;;22.38;;
12958;SDS011;6544;51.666;6.634;2023-05-10T03:40:37;29.88;;;22.70;;
12958;SDS011;6544;51.666;6.634;2023-05-10T03:43:04;43.70;;;25.45;;
12958;SDS011;6544;51.666;6.634;2023-05-10T03:45:31;36.35;;;25.02;;
12958;SDS011;6544;51.666;6.634;2023-05-10T03:47:58;36.15;;;24.88;;
12958;SDS011;6544;51.666;6.634;2023-05-10T03:50:25;38.20;;;25.50;;
12958;SDS011;6544;51.666;6.634;2023-05-10T03:52:52;41.95;;;26.92;;
12958;SDS011;6544;51.666;6.634;2023-05-10T03:55:19;42.08;;;27.45;;
12958;SDS011;6544;51.666;6.634;2023-05-10T03:57:48;40.60;;;28.40;;
12958;SDS011;6544;51.666;6.634;2023-05-10T04:00:15;40.70;;;27.02;;
12958;SDS011;6544;51.666;6.634;2023-05-10T04:02:42;41.42;;;26.27;;
12958;SDS011;6544;51.666;6.634;2023-05-10T04:05:09;40.25;;;26.88;;
12958;SDS011;6544;51.666;6.634;2023-05-10T04:07:36;39.00;;;26.00;;
12958;SDS011;6544;51.666;6.634;2023-05-10T04:10:04;35.80;;;25.08;;
12958;SDS011;6544;51.666;6.634;2023-05-10T04:12:31;34.13;;;24.00;;
12958;SDS011;6544;51.666;6.634;2023-05-10T04:14:59;36.72;;;25.42;;
12958;SDS011;6544;51.666;6.634;2023-05-10T04:17:26;34.88;;;23.52;;
12958;SDS011;6544;51.666;6.634;2023-05-10T04:19:53;33.80;;;23.73;;
12958;SDS011;6544;51.666;6.634;2023-05-10T04:22:20;38.97;;;25.95;;
12958;SDS011;6544;51.666;6.634;2023-05-10T04:24:47;36.80;;;23.88;;
12958;SDS011;6544;51.666;6.634;2023-05-10T04:27:14;35.13;;;24.17;;
12958;SDS011;6544;51.666;6.634;2023-05-10T04:29:41;35.88;;;24.05;;
12958;SDS011;6544;51.666;6.634;2023-05-10T04:32:09;40.42;;;24.95;;
12958;SDS011;6544;51.666;6.634;2023-05-10T04:34:36;38.70;;;25.88;;
12958;SDS011;6544;51.666;6.634;2023-05-10T04:37:03;40.53;;;26.65;;
12958;SDS011;6544;51.666;6.634;2023-05-10T04:39:30;42.45;;;26.23;;
12958;SDS011;6544;51.666;6.634;2023-05-10T04:41:57;42.53;;;28.50;;
12958;SDS011;6544;51.666;6.634;2023-05-10T04:44:24;43.28;;;27.30;;
12958;SDS011;6544;51.666;6.634;2023-05-10T04:46:51;44.13;;;27.55;;
12958;SDS011;6544;51.666;6.634;2023-05-10T04:49:19;44.13;;;29.63;;
12958;SDS011;6544;51.666;6.634;2023-05-10T04:51:46;51.83;;;30.33;;
12958;SDS011;6544;51.666;6.634;2023-05-10T04:54:13;58.92;;;34.05;;
12958;SDS011;6544;51.666;6.634;2023-05-10T04:56:40;56.60;;;32.20;;
12958;SDS011;6544;51.666;6.634;2023-05-10T04:59:07;55.22;;;32.65;;
12958;SDS011;6544;51.666;6.634;2023-05-10T05:01:34;59.33;;;32.13;;
12958;SDS011;6544;51.666;6.634;2023-05-10T05:04:01;56.28;;;31.80;;
12958;SDS011;6544;51.666;6.634;2023-05-10T05:06:29;62.92;;;32.63;;
12958;SDS011;6544;51.666;6.634;2023-05-10T05:08:56;61.13;;;32.80;;
12958;SDS011;6544;51.666;6.634;2023-05-10T05:11:23;57.47;;;33.42;;
12958;SDS011;6544;51.666;6.634;2023-05-10T05:13:50;56.88;;;33.70;;
12958;SDS011;6544;51.666;6.634;2023-05-10T05:16:17;59.03;;;34.88;;
12958;SDS011;6544;51.666;6.634;2023-05-10T05:18:44;65.40;;;35.80;;
12958;SDS011;6544;51.666;6.634;2023-05-10T05:21:14;64.28;;;35.58;;
12958;SDS011;6544;51.666;6.634;2023-05-10T05:23:43;66.00;;;35.55;;
12958;SDS011;6544;51.666;6.634;2023-05-10T05:26:10;68.10;;;36.67;;
12958;SDS011;6544;51.666;6.634;2023-05-10T05:28:37;70.28;;;37.20;;
12958;SDS011;6544;51.666;6.634;2023-05-10T05:31:04;68.13;;;37.30;;
12958;SDS011;6544;51.666;6.634;2023-05-10T05:33:34;65.90;;;36.55;;
12958;SDS011;6544;51.666;6.634;2023-05-10T05:36:06;59.63;;;36.17;;
12958;SDS011;6544;51.666;6.634;2023-05-10T05:38:33;64.45;;;37.45;;
12958;SDS011;6544;51.666;6.634;2023-05-10T05:41:02;57.65;;;33.30;;
12958;SDS011;6544;51.666;6.634;2023-05-10T05:43:29;60.05;;;35.38;;
12958;SDS011;6544;51.666;6.634;2023-05-10T05:45:55;57.53;;;34.15;;
12958;SDS011;6544;51.666;6.634;2023-05-10T05:48:22;55.70;;;35.45;;
12958;SDS011;6544;51.666;6.634;2023-05-10T05:50:50;57.20;;;34.65;;
12958;SDS011;6544;51.666;6.634;2023-05-10T05:53:20;54.75;;;34.88;;
12958;SDS011;6544;51.666;6.634;2023-05-10T05:55:51;61.58;;;37.08;;
12958;SDS011;6544;51.666;6.634;2023-05-10T05:58:20;54.20;;;34.08;;
12958;SDS011;6544;51.666;6.634;2023-05-10T06:00:47;56.42;;;35.60;;
12958;SDS011;6544;51.666;6.634;2023-05-10T06:03:14;50.92;;;34.28;;
12958;SDS011;6544;51.666;6.634;2023-05-10T06:05:41;55.88;;;34.58;;
12958;SDS011;6544;51.666;6.634;2023-05-10T06:08:08;54.40;;;35.08;;
12958;SDS011;6544;51.666;6.634;2023-05-10T06:10:35;49.83;;;33.92;;
12958;SDS011;6544;51.666;6.634;2023-05-10T06:13:02;54.58;;;34.55;;
12958;SDS011;6544;51.666;6.634;2023-05-10T06:15:30;53.17;;;33.00;;
12958;SDS011;6544;51.666;6.634;2023-05-10T06:17:58;49.22;;;31.42;;
12958;SDS011;6544;51.666;6.634;2023-05-10T06:20:25;48.03;;;32.47;;
12958;SDS011;6544;51.666;6.634;2023-05-10T06:22:52;51.42;;;34.75;;
12958;SDS011;6544;51.666;6.634;2023-05-10T06:25:19;48.05;;;32.05;;
12958;SDS011;6544;51.666;6.634;2023-05-10T06:27:46;51.22;;;32.67;;
12958;SDS011;6544;51.666;6.634;2023-05-10T06:30:13;48.28;;;32.90;;
12958;SDS011;6544;51.666;6.634;2023-05-10T06:32:42;46.13;;;31.98;;
12958;SDS011;6544;51.666;6.634;2023-05-10T06:35:10;48.42;;;31.48;;
12958;SDS011;6544;51.666;6.634;2023-05-10T06:37:37;45.67;;;30.52;;
12958;SDS011;6544;51.666;6.634;2023-05-10T06:40:04;45.92;;;31.40;;
12958;SDS011;6544;51.666;6.634;2023-05-10T06:42:32;46.63;;;31.50;;
12958;SDS011;6544;51.666;6.634;2023-05-10T06:44:59;46.17;;;31.15;;
12958;SDS011;6544;51.666;6.634;2023-05-10T06:47:26;46.85;;;30.77;;
12958;SDS011;6544;51.666;6.634;2023-05-10T06:49:54;47.22;;;31.00;;
12958;SDS011;6544;51.666;6.634;2023-05-10T06:52:21;45.47;;;31.10;;
12958;SDS011;6544;51.666;6.634;2023-05-10T06:54:48;48.75;;;31.70;;
12958;SDS011;6544;51.666;6.634;2023-05-10T06:57:15;49.47;;;32.90;;
12958;SDS011;6544;51.666;6.634;2023-05-10T06:59:42;54.83;;;34.25;;
12958;SDS011;6544;51.666;6.634;2023-05-10T07:02:09;51.45;;;31.50;;
12958;SDS011;6544;51.666;6.634;2023-05-10T07:04:36;45.75;;;31.23;;
12958;SDS011;6544;51.666;6.634;2023-05-10T07:07:05;47.58;;;32.75;;
12958;SDS011;6544;51.666;6.634;2023-05-10T07:09:31;47.55;;;31.33;;
12958;SDS011;6544;51.666;6.634;2023-05-10T07:11:58;46.75;;;30.88;;
12958;SDS011;6544;51.666;6.634;2023-05-10T07:14:26;47.50;;;33.60;;
12958;SDS011;6544;51.666;6.634;2023-05-10T07:16:53;50.58;;;32.25;;
12958;SDS011;6544;51.666;6.634;2023-05-10T07:19:20;51.17;;;32.50;;
12958;SDS011;6544;51.666;6.634;2023-05-10T07:21:48;49.30;;;31.95;;
12958;SDS011;6544;51.666;6.634;2023-05-10T07:24:16;52.10;;;33.65;;
12958;SDS011;6544;51.666;6.634;2023-05-10T07:26:43;56.38;;;34.55;;
12958;SDS011;6544;51.666;6.634;2023-05-10T07:29:10;52.65;;;32.88;;
12958;SDS011;6544;51.666;6.634;2023-05-10T07:31:37;50.20;;;33.03;;
12958;SDS011;6544;51.666;6.634;2023-05-10T07:34:04;53.17;;;32.95;;
12958;SDS011;6544;51.666;6.634;2023-05-10T07:36:31;48.90;;;31.85;;
12958;SDS011;6544;51.666;6.634;2023-05-10T07:38:57;48.08;;;31.25;;
12958;SDS011;6544;51.666;6.634;2023-05-10T07:41:26;49.47;;;31.48;;
12958;SDS011;6544;51.666;6.634;2023-05-10T07:43:53;47.90;;;30.90;;
12958;SDS011;6544;51.666;6.634;2023-05-10T07:46:20;44.28;;;30.00;;
12958;SDS011;6544;51.666;6.634;2023-05-10T07:48:46;43.45;;;28.35;;
12958;SDS011;6544;51.666;6.634;2023-05-10T07:51:13;41.20;;;27.42;;
12958;SDS011;6544;51.666;6.634;2023-05-10T07:53:40;40.47;;;27.33;;
12958;SDS011;6544;51.666;6.634;2023-05-10T07:56:20;41.83;;;28.13;;
12958;SDS011;6544;51.666;6.634;2023-05-10T07:58:50;41.65;;;27.50;;
12958;SDS011;6544;51.666;6.634;2023-05-10T08:01:17;40.97;;;28.33;;
12958;SDS011;6544;51.666;6.634;2023-05-10T08:03:44;38.78;;;27.13;;
12958;SDS011;6544;51.666;6.634;2023-05-10T08:06:11;39.90;;;27.88;;
12958;SDS011;6544;51.666;6.634;2023-05-10T08:08:38;43.72;;;28.05;;
12958;SDS011;6544;51.666;6.634;2023-05-10T08:11:05;44.03;;;27.50;;
12958;SDS011;6544;51.666;6.634;2023-05-10T08:13:32;41.72;;;26.90;;
12958;SDS011;6544;51.666;6.634;2023-05-10T08:16:00;36.97;;;25.27;;
12958;SDS011;6544;51.666;6.634;2023-05-10T08:18:27;37.33;;;24.75;;
12958;SDS011;6544;51.666;6.634;2023-05-10T08:20:54;40.90;;;24.83;;
12958;SDS011;6544;51.666;6.634;2023-05-10T08:23:21;36.90;;;24.63;;
12958;SDS011;6544;51.666;6.634;2023-05-10T08:25:48;41.97;;;24.80;;
12958;SDS011;6544;51.666;6.634;2023-05-10T08:28:15;36.60;;;23.40;;
12958;SDS011;6544;51.666;6.634;2023-05-10T08:30:41;33.10;;;22.52;;
12958;SDS011;6544;51.666;6.634;2023-05-10T08:33:10;31.88;;;22.42;;
12958;SDS011;6544;51.666;6.634;2023-05-10T08:35:37;31.77;;;21.60;;
12958;SDS011;6544;51.666;6.634;2023-05-10T08:38:04;31.77;;;21.27;;
12958;SDS011;6544;51.666;6.634;2023-05-10T08:40:30;30.00;;;20.58;;
12958;SDS011;6544;51.666;6.634;2023-05-10T08:42:59;37.20;;;22.77;;
12958;SDS011;6544;51.666;6.634;2023-05-10T08:45:32;34.60;;;23.63;;
12958;SDS011;6544;51.666;6.634;2023-05-10T08:48:01;36.85;;;22.95;;
12958;SDS011;6544;51.666;6.634;2023-05-10T08:50:30;34.05;;;23.65;;
12958;SDS011;6544;51.666;6.634;2023-05-10T08:52:59;35.15;;;23.48;;
12958;SDS011;6544;51.666;6.634;2023-05-10T08:55:29;38.05;;;24.42;;
12958;SDS011;6544;51.666;6.634;2023-05-10T08:57:58;33.63;;;23.33;;
12958;SDS011;6544;51.666;6.634;2023-05-10T09:00:25;35.22;;;23.75;;
12958;SDS011;6544;51.666;6.634;2023-05-10T09:02:53;39.33;;;25.90;;
12958;SDS011;6544;51.666;6.634;2023-05-10T09:05:20;39.25;;;25.38;;
12958;SDS011;6544;51.666;6.634;2023-05-10T09:07:49;38.83;;;24.50;;
12958;SDS011;6544;51.666;6.634;2023-05-10T09:10:15;37.97;;;23.58;;
12958;SDS011;6544;51.666;6.634;2023-05-10T09:12:43;38.00;;;22.52;;
12958;SDS011;6544;51.666;6.634;2023-05-10T09:15:11;33.13;;;22.52;;
12958;SDS011;6544;51.666;6.634;2023-05-10T09:17:41;36.80;;;22.58;;
12958;SDS011;6544;51.666;6.634;2023-05-10T09:20:10;30.48;;;21.17;;
12958;SDS011;6544;51.666;6.634;2023-05-10T09:22:37;32.20;;;22.08;;
12958;SDS011;6544;51.666;6.634;2023-05-10T09:25:06;31.70;;;20.95;;
12958;SDS011;6544;51.666;6.634;2023-05-10T09:27:36;28.60;;;20.65;;
12958;SDS011;6544;51.666;6.634;2023-05-10T09:30:03;29.63;;;20.50;;
12958;SDS011;6544;51.666;6.634;2023-05-10T09:32:38;27.13;;;19.58;;
12958;SDS011;6544;51.666;6.634;2023-05-10T09:35:06;28.13;;;19.60;;
12958;SDS011;6544;51.666;6.634;2023-05-10T09:37:36;28.10;;;19.52;;
12958;SDS011;6544;51.666;6.634;2023-05-10T09:40:11;26.17;;;19.23;;
12958;SDS011;6544;51.666;6.634;2023-05-10T09:42:39;26.80;;;18.92;;
12958;SDS011;6544;51.666;6.634;2023-05-10T09:45:08;27.85;;;19.50;;
12958;SDS011;6544;51.666;6.634;2023-05-10T09:47:35;26.25;;;19.33;;
12958;SDS011;6544;51.666;6.634;2023-05-10T09:50:02;26.13;;;19.05;;
12958;SDS011;6544;51.666;6.634;2023-05-10T09:52:31;27.38;;;19.02;;
12958;SDS011;6544;51.666;6.634;2023-05-10T09:55:14;26.23;;;18.10;;
12958;SDS011;6544;51.666;6.634;2023-05-10T09:57:41;24.38;;;17.40;;
12958;SDS011;6544;51.666;6.634;2023-05-10T10:00:09;24.42;;;16.77;;
12958;SDS011;6544;51.666;6.634;2023-05-10T10:02:37;21.17;;;15.80;;
12958;SDS011;6544;51.666;6.634;2023-05-10T10:05:06;19.98;;;15.57;;
12958;SDS011;6544;51.666;6.634;2023-05-10T10:07:34;24.13;;;16.58;;
12958;SDS011;6544;51.666;6.634;2023-05-10T10:10:01;21.60;;;16.05;;
12958;SDS011;6544;51.666;6.634;2023-05-10T10:12:31;21.42;;;15.48;;
12958;SDS011;6544;51.666;6.634;2023-05-10T10:14:59;22.95;;;15.95;;
12958;SDS011;6544;51.666;6.634;2023-05-10T10:17:26;26.83;;;16.73;;
12958;SDS011;6544;51.666;6.634;2023-05-10T10:19:54;22.85;;;16.35;;
12958;SDS011;6544;51.666;6.634;2023-05-10T10:22:23;19.58;;;15.23;;
12958;SDS011;6544;51.666;6.634;2023-05-10T10:24:50;23.73;;;16.77;;
12958;SDS011;6544;51.666;6.634;2023-05-10T10:27:19;23.45;;;17.40;;
12958;SDS011;6544;51.666;6.634;2023-05-10T10:30:00;29.48;;;18.55;;
12958;SDS011;6544;51.666;6.634;2023-05-10T10:32:33;25.60;;;18.08;;
12958;SDS011;6544;51.666;6.634;2023-05-10T10:35:08;26.48;;;17.85;;
12958;SDS011;6544;51.666;6.634;2023-05-10T10:37:44;30.08;;;19.23;;
12958;SDS011;6544;51.666;6.634;2023-05-10T10:40:25;26.38;;;18.05;;
12958;SDS011;6544;51.666;6.634;2023-05-10T10:42:53;25.05;;;18.48;;
12958;SDS011;6544;51.666;6.634;2023-05-10T10:45:23;27.65;;;19.23;;
12958;SDS011;6544;51.666;6.634;2023-05-10T10:47:53;30.83;;;19.90;;
12958;SDS011;6544;51.666;6.634;2023-05-10T10:50:42;26.00;;;19.38;;
12958;SDS011;6544;51.666;6.634;2023-05-10T10:53:10;31.52;;;20.73;;
12958;SDS011;6544;51.666;6.634;2023-05-10T11:21:07;29.77;;;21.15;;
12958;SDS011;6544;51.666;6.634;2023-05-10T11:23:48;27.00;;;19.85;;
12958;SDS011;6544;51.666;6.634;2023-05-10T11:26:16;28.80;;;21.02;;
12958;SDS011;6544;51.666;6.634;2023-05-10T11:28:43;28.05;;;20.35;;
12958;SDS011;6544;51.666;6.634;2023-05-10T11:31:13;28.02;;;21.05;;
12958;SDS011;6544;51.666;6.634;2023-05-10T11:33:43;27.92;;;20.65;;
12958;SDS011;6544;51.666;6.634;2023-05-10T11:36:13;26.90;;;20.90;;
12958;SDS011;6544;51.666;6.634;2023-05-10T11:38:41;28.90;;;20.35;;
12958;SDS011;6544;51.666;6.634;2023-05-10T11:41:08;26.27;;;20.00;;
12958;SDS011;6544;51.666;6.634;2023-05-10T11:43:36;25.65;;;19.63;;
12958;SDS011;6544;51.666;6.634;2023-05-10T11:46:04;25.90;;;19.55;;
12958;SDS011;6544;51.666;6.634;2023-05-10T11:48:32;23.20;;;17.95;;
12958;SDS011;6544;51.666;6.634;2023-05-10T11:51:00;24.25;;;18.40;;
12958;SDS011;6544;51.666;6.634;2023-05-10T11:53:28;22.73;;;17.65;;
12958;SDS011;6544;51.666;6.634;2023-05-10T11:56:02;21.38;;;17.20;;
12958;SDS011;6544;51.666;6.634;2023-05-10T11:58:30;22.23;;;16.88;;
12958;SDS011;6544;51.666;6.634;2023-05-10T12:00:57;19.13;;;15.40;;
12958;SDS011;6544;51.666;6.634;2023-05-10T12:03:27;23.88;;;16.70;;
12958;SDS011;6544;51.666;6.634;2023-05-10T12:05:55;19.20;;;15.15;;
12958;SDS011;6544;51.666;6.634;2023-05-10T12:08:23;22.65;;;15.40;;
12958;SDS011;6544;51.666;6.634;2023-05-10T12:10:53;19.00;;;15.40;;
12958;SDS011;6544;51.666;6.634;2023-05-10T12:13:31;19.40;;;15.63;;
12958;SDS011;6544;51.666;6.634;2023-05-10T12:15:58;20.38;;;15.05;;
12958;SDS011;6544;51.666;6.634;2023-05-10T12:18:25;19.85;;;15.15;;
12958;SDS011;6544;51.666;6.634;2023-05-10T12:20:52;21.10;;;16.92;;
12958;SDS011;6544;51.666;6.634;2023-05-10T12:23:20;20.17;;;14.90;;
12958;SDS011;6544;51.666;6.634;2023-05-10T12:25:47;18.35;;;13.90;;
12958;SDS011;6544;51.666;6.634;2023-05-10T12:28:15;20.60;;;15.52;;
12958;SDS011;6544;51.666;6.634;2023-05-10T12:30:45;19.83;;;15.13;;
12958;SDS011;6544;51.666;6.634;2023-05-10T12:33:13;18.75;;;14.07;;
12958;SDS011;6544;51.666;6.634;2023-05-10T12:35:45;17.75;;;14.32;;
12958;SDS011;6544;51.666;6.634;2023-05-10T12:41:03;19.70;;;15.32;;
12958;SDS011;6544;51.666;6.634;2023-05-10T12:43:33;19.65;;;12.90;;
12958;SDS011;6544;51.666;6.634;2023-05-10T12:46:04;18.98;;;13.77;;
12958;SDS011;6544;51.666;6.634;2023-05-10T12:48:31;16.08;;;12.70;;
12958;SDS011;6544;51.666;6.634;2023-05-10T12:51:00;15.35;;;12.13;;
12958;SDS011;6544;51.666;6.634;2023-05-10T12:53:27;14.25;;;11.90;;
12958;SDS011;6544;51.666;6.634;2023-05-10T12:55:54;14.63;;;12.25;;
12958;SDS011;6544;51.666;6.634;2023-05-10T12:58:21;16.65;;;13.63;;
12958;SDS011;6544;51.666;6.634;2023-05-10T13:00:49;15.77;;;13.60;;
12958;SDS011;6544;51.666;6.634;2023-05-10T13:03:17;21.00;;;14.48;;
12958;SDS011;6544;51.666;6.634;2023-05-10T13:05:44;20.25;;;14.90;;
12958;SDS011;6544;51.666;6.634;2023-05-10T13:08:12;17.77;;;14.13;;
12958;SDS011;6544;51.666;6.634;2023-05-10T13:10:38;20.73;;;14.93;;
12958;SDS011;6544;51.666;6.634;2023-05-10T13:13:08;20.05;;;14.32;;
12958;SDS011;6544;51.666;6.634;2023-05-10T13:15:35;22.88;;;14.05;;
12958;SDS011;6544;51.666;6.634;2023-05-10T13:18:04;19.63;;;15.77;;
12958;SDS011;6544;51.666;6.634;2023-05-10T13:20:31;19.17;;;14.30;;
12958;SDS011;6544;51.666;6.634;2023-05-10T13:22:57;18.77;;;13.93;;
12958;SDS011;6544;51.666;6.634;2023-05-10T13:25:24;16.73;;;13.88;;
12958;SDS011;6544;51.666;6.634;2023-05-10T13:27:51;15.52;;;12.98;;
12958;SDS011;6544;51.666;6.634;2023-05-10T13:30:18;14.68;;;12.32;;
12958;SDS011;6544;51.666;6.634;2023-05-10T13:32:45;17.25;;;14.02;;
12958;SDS011;6544;51.666;6.634;2023-05-10T13:35:13;15.85;;;12.65;;
12958;SDS011;6544;51.666;6.634;2023-05-10T13:37:40;15.85;;;12.23;;
12958;SDS011;6544;51.666;6.634;2023-05-10T13:40:10;13.38;;;11.23;;
12958;SDS011;6544;51.666;6.634;2023-05-10T13:42:37;13.10;;;11.18;;
12958;SDS011;6544;51.666;6.634;2023-05-10T13:45:05;16.42;;;11.27;;
12958;SDS011;6544;51.666;6.634;2023-05-10T13:47:32;14.43;;;11.10;;
12958;SDS011;6544;51.666;6.634;2023-05-10T13:49:59;17.60;;;11.93;;
12958;SDS011;6544;51.666;6.634;2023-05-10T13:52:27;14.63;;;11.77;;
12958;SDS011;6544;51.666;6.634;2023-05-10T13:54:54;18.13;;;12.13;;
12958;SDS011;6544;51.666;6.634;2023-05-10T13:57:22;15.20;;;11.80;;
12958;SDS011;6544;51.666;6.634;2023-05-10T13:59:49;16.85;;;12.02;;
12958;SDS011;6544;51.666;6.634;2023-05-10T14:02:16;14.50;;;11.93;;
12958;SDS011;6544;51.666;6.634;2023-05-10T14:04:43;15.73;;;11.93;;
12958;SDS011;6544;51.666;6.634;2023-05-10T14:07:10;15.88;;;12.25;;
12958;SDS011;6544;51.666;6.634;2023-05-10T14:09:38;13.48;;;11.70;;
12958;SDS011;6544;51.666;6.634;2023-05-10T14:12:05;12.63;;;10.15;;
12958;SDS011;6544;51.666;6.634;2023-05-10T14:14:32;12.73;;;10.60;;
12958;SDS011;6544;51.666;6.634;2023-05-10T14:16:59;13.75;;;11.30;;
12958;SDS011;6544;51.666;6.634;2023-05-10T14:19:26;13.52;;;11.15;;
12958;SDS011;6544;51.666;6.634;2023-05-10T14:21:55;14.07;;;11.43;;
12958;SDS011;6544;51.666;6.634;2023-05-10T14:24:25;12.95;;;10.02;;
12958;SDS011;6544;51.666;6.634;2023-05-10T14:26:54;13.48;;;10.55;;
12958;SDS011;6544;51.666;6.634;2023-05-10T14:29:21;14.07;;;10.00;;
12958;SDS011;6544;51.666;6.634;2023-05-10T14:31:48;13.45;;;9.52;;
12958;SDS011;6544;51.666;6.634;2023-05-10T14:34:15;11.27;;;9.43;;
12958;SDS011;6544;51.666;6.634;2023-05-10T14:36:42;11.40;;;9.27;;
12958;SDS011;6544;51.666;6.634;2023-05-10T14:39:09;13.38;;;9.35;;
12958;SDS011;6544;51.666;6.634;2023-05-10T14:41:37;11.50;;;10.15;;
12958;SDS011;6544;51.666;6.634;2023-05-10T14:44:07;14.90;;;11.60;;
12958;SDS011;6544;51.666;6.634;2023-05-10T14:46:34;11.15;;;9.40;;
12958;SDS011;6544;51.666;6.634;2023-05-10T14:49:01;11.20;;;9.82;;
12958;SDS011;6544;51.666;6.634;2023-05-10T14:51:28;12.00;;;9.85;;
12958;SDS011;6544;51.666;6.634;2023-05-10T14:53:56;14.13;;;10.02;;
12958;SDS011;6544;51.666;6.634;2023-05-10T14:56:23;10.93;;;8.95;;
12958;SDS011;6544;51.666;6.634;2023-05-10T14:58:50;11.07;;;9.35;;
12958;SDS011;6544;51.666;6.634;2023-05-10T15:01:19;12.70;;;9.68;;
12958;SDS011;6544;51.666;6.634;2023-05-10T15:03:46;11.50;;;9.82;;
12958;SDS011;6544;51.666;6.634;2023-05-10T15:06:13;13.88;;;10.02;;
12958;SDS011;6544;51.666;6.634;2023-05-10T15:08:40;9.48;;;7.60;;
12958;SDS011;6544;51.666;6.634;2023-05-10T15:11:08;12.65;;;7.30;;
12958;SDS011;6544;51.666;6.634;2023-05-10T15:13:35;8.40;;;7.00;;
12958;SDS011;6544;51.666;6.634;2023-05-10T15:16:02;8.57;;;6.20;;